Terminal Aerodrome Forecast
Issued by NWS

Home | Current Version | Previous Version | Graphics & Text | Print | Product List | Glossary Off
Versions: 1 2 3 4 5 6 7 8 9 10 11 12 13 14 15 16 17 18 19 20 21

000
FTUS43 KDDC 191127
TAFGCK
TAF
KGCK 191127Z 1912/2012 17013KT P6SM FEW200
     FM191700 21025G35KT P6SM SKC
     FM200200 19013KT P6SM SKC=

USA.gov is the U.S. government's official web portal to all federal, state and local government web resources and services.